sensor_id;sensor_type;location;lat;lon;timestamp;P1;durP1;ratioP1;P2;durP2;ratioP2
71667;SDS011;59504;54.806;9.640;2022-09-20T00:02:22;2.88;;;0.73;;
71667;SDS011;59504;54.806;9.640;2022-09-20T00:04:22;2.65;;;0.80;;
71667;SDS011;59504;54.806;9.640;2022-09-20T00:06:24;3.97;;;0.50;;
71667;SDS011;59504;54.806;9.640;2022-09-20T00:08:27;2.70;;;0.60;;
71667;SDS011;59504;54.806;9.640;2022-09-20T00:10:27;2.30;;;0.60;;
71667;SDS011;59504;54.806;9.640;2022-09-20T00:12:30;3.20;;;0.57;;
71667;SDS011;59504;54.806;9.640;2022-09-20T00:14:31;4.38;;;0.77;;
71667;SDS011;59504;54.806;9.640;2022-09-20T00:16:32;3.15;;;0.70;;
71667;SDS011;59504;54.806;9.640;2022-09-20T00:18:35;7.05;;;0.75;;
71667;SDS011;59504;54.806;9.640;2022-09-20T00:20:43;1.10;;;0.50;;
71667;SDS011;59504;54.806;9.640;2022-09-20T00:22:44;4.97;;;0.73;;
71667;SDS011;59504;54.806;9.640;2022-09-20T00:24:48;1.25;;;0.68;;
71667;SDS011;59504;54.806;9.640;2022-09-20T00:26:49;5.68;;;0.80;;
71667;SDS011;59504;54.806;9.640;2022-09-20T00:28:50;3.38;;;0.90;;
71667;SDS011;59504;54.806;9.640;2022-09-20T00:30:51;3.60;;;0.70;;
71667;SDS011;59504;54.806;9.640;2022-09-20T00:32:53;2.75;;;0.80;;
71667;SDS011;59504;54.806;9.640;2022-09-20T00:34:53;3.72;;;0.82;;
71667;SDS011;59504;54.806;9.640;2022-09-20T00:37:12;1.48;;;0.60;;
71667;SDS011;59504;54.806;9.640;2022-09-20T00:39:13;2.22;;;0.65;;
71667;SDS011;59504;54.806;9.640;2022-09-20T00:41:14;3.22;;;0.60;;
71667;SDS011;59504;54.806;9.640;2022-09-20T00:43:15;1.33;;;0.65;;
71667;SDS011;59504;54.806;9.640;2022-09-20T00:47:44;6.22;;;1.00;;
71667;SDS011;59504;54.806;9.640;2022-09-20T00:49:52;4.03;;;0.75;;
71667;SDS011;59504;54.806;9.640;2022-09-20T00:51:59;2.95;;;0.55;;
71667;SDS011;59504;54.806;9.640;2022-09-20T00:54:01;1.77;;;0.70;;
71667;SDS011;59504;54.806;9.640;2022-09-20T00:56:07;4.60;;;0.85;;
71667;SDS011;59504;54.806;9.640;2022-09-20T00:58:13;1.10;;;0.50;;
71667;SDS011;59504;54.806;9.640;2022-09-20T01:00:15;5.40;;;0.65;;
71667;SDS011;59504;54.806;9.640;2022-09-20T01:02:20;2.92;;;0.68;;
71667;SDS011;59504;54.806;9.640;2022-09-20T01:04:25;6.05;;;0.75;;
71667;SDS011;59504;54.806;9.640;2022-09-20T01:06:27;4.38;;;0.75;;
71667;SDS011;59504;54.806;9.640;2022-09-20T01:08:30;6.03;;;0.77;;
71667;SDS011;59504;54.806;9.640;2022-09-20T01:10:31;5.90;;;0.75;;
71667;SDS011;59504;54.806;9.640;2022-09-20T01:12:32;1.77;;;0.63;;
71667;SDS011;59504;54.806;9.640;2022-09-20T01:14:34;10.48;;;1.20;;
71667;SDS011;59504;54.806;9.640;2022-09-20T01:16:35;5.82;;;0.82;;
71667;SDS011;59504;54.806;9.640;2022-09-20T01:18:36;5.28;;;0.82;;
71667;SDS011;59504;54.806;9.640;2022-09-20T01:20:39;3.72;;;0.90;;
71667;SDS011;59504;54.806;9.640;2022-09-20T01:28:01;7.35;;;1.27;;
71667;SDS011;59504;54.806;9.640;2022-09-20T01:30:05;8.38;;;1.00;;
71667;SDS011;59504;54.806;9.640;2022-09-20T01:32:12;5.45;;;0.90;;
71667;SDS011;59504;54.806;9.640;2022-09-20T01:34:31;6.00;;;1.02;;
71667;SDS011;59504;54.806;9.640;2022-09-20T01:36:37;4.22;;;0.93;;
71667;SDS011;59504;54.806;9.640;2022-09-20T01:38:42;10.65;;;1.23;;
71667;SDS011;59504;54.806;9.640;2022-09-20T01:43:33;4.68;;;0.90;;
71667;SDS011;59504;54.806;9.640;2022-09-20T01:45:51;7.90;;;1.15;;
71667;SDS011;59504;54.806;9.640;2022-09-20T01:48:09;8.63;;;1.38;;
71667;SDS011;59504;54.806;9.640;2022-09-20T02:00:02;4.22;;;1.05;;
71667;SDS011;59504;54.806;9.640;2022-09-20T02:02:05;7.60;;;1.00;;
71667;SDS011;59504;54.806;9.640;2022-09-20T02:11:17;8.15;;;1.38;;
71667;SDS011;59504;54.806;9.640;2022-09-20T02:13:30;9.20;;;1.05;;
71667;SDS011;59504;54.806;9.640;2022-09-20T02:15:51;5.57;;;0.93;;
71667;SDS011;59504;54.806;9.640;2022-09-20T02:27:58;5.85;;;1.63;;
71667;SDS011;59504;54.806;9.640;2022-09-20T02:30:33;9.73;;;0.82;;
71667;SDS011;59504;54.806;9.640;2022-09-20T02:39:44;7.97;;;1.23;;
71667;SDS011;59504;54.806;9.640;2022-09-20T02:42:01;6.57;;;1.08;;
71667;SDS011;59504;54.806;9.640;2022-09-20T02:49:09;8.82;;;1.00;;
71667;SDS011;59504;54.806;9.640;2022-09-20T02:51:30;9.57;;;2.17;;
71667;SDS011;59504;54.806;9.640;2022-09-20T02:53:43;5.88;;;1.05;;
71667;SDS011;59504;54.806;9.640;2022-09-20T02:56:17;4.43;;;1.00;;
71667;SDS011;59504;54.806;9.640;2022-09-20T02:58:39;11.30;;;1.30;;
71667;SDS011;59504;54.806;9.640;2022-09-20T03:00:50;7.30;;;1.40;;
71667;SDS011;59504;54.806;9.640;2022-09-20T03:05:26;4.95;;;1.08;;
71667;SDS011;59504;54.806;9.640;2022-09-20T03:12:12;11.20;;;0.93;;
71667;SDS011;59504;54.806;9.640;2022-09-20T03:14:54;7.35;;;1.00;;
71667;SDS011;59504;54.806;9.640;2022-09-20T03:22:26;7.47;;;1.30;;
71667;SDS011;59504;54.806;9.640;2022-09-20T03:30:00;9.48;;;1.20;;
71667;SDS011;59504;54.806;9.640;2022-09-20T03:32:16;9.13;;;1.20;;
71667;SDS011;59504;54.806;9.640;2022-09-20T03:42:06;4.43;;;0.80;;
71667;SDS011;59504;54.806;9.640;2022-09-20T03:46:43;11.13;;;1.10;;
71667;SDS011;59504;54.806;9.640;2022-09-20T03:49:09;5.75;;;0.73;;
71667;SDS011;59504;54.806;9.640;2022-09-20T03:51:15;14.65;;;1.85;;
71667;SDS011;59504;54.806;9.640;2022-09-20T04:05:40;6.63;;;1.27;;
71667;SDS011;59504;54.806;9.640;2022-09-20T04:26:46;6.82;;;0.75;;
71667;SDS011;59504;54.806;9.640;2022-09-20T04:31:58;5.47;;;0.90;;
71667;SDS011;59504;54.806;9.640;2022-09-20T04:34:32;4.07;;;0.80;;
71667;SDS011;59504;54.806;9.640;2022-09-20T04:37:20;6.57;;;1.02;;
71667;SDS011;59504;54.806;9.640;2022-09-20T04:40:14;8.82;;;1.95;;
71667;SDS011;59504;54.806;9.640;2022-09-20T04:46:00;9.98;;;2.42;;
71667;SDS011;59504;54.806;9.640;2022-09-20T04:59:34;7.80;;;2.10;;
71667;SDS011;59504;54.806;9.640;2022-09-20T05:04:41;9.77;;;2.40;;
71667;SDS011;59504;54.806;9.640;2022-09-20T05:30:46;10.48;;;1.40;;
71667;SDS011;59504;54.806;9.640;2022-09-20T05:33:11;7.88;;;1.20;;
71667;SDS011;59504;54.806;9.640;2022-09-20T05:35:39;8.02;;;0.95;;
71667;SDS011;59504;54.806;9.640;2022-09-20T05:54:46;5.63;;;0.90;;
71667;SDS011;59504;54.806;9.640;2022-09-20T05:57:20;7.60;;;1.60;;
71667;SDS011;59504;54.806;9.640;2022-09-20T06:04:24;8.07;;;1.10;;
71667;SDS011;59504;54.806;9.640;2022-09-20T06:06:44;8.07;;;0.93;;
71667;SDS011;59504;54.806;9.640;2022-09-20T06:08:58;8.05;;;0.88;;
71667;SDS011;59504;54.806;9.640;2022-09-20T06:18:17;8.05;;;1.23;;
71667;SDS011;59504;54.806;9.640;2022-09-20T06:24:48;11.82;;;1.23;;
71667;SDS011;59504;54.806;9.640;2022-09-20T06:26:58;7.93;;;1.23;;
71667;SDS011;59504;54.806;9.640;2022-09-20T06:29:02;6.95;;;1.02;;
71667;SDS011;59504;54.806;9.640;2022-09-20T06:31:09;13.50;;;1.65;;
71667;SDS011;59504;54.806;9.640;2022-09-20T06:33:20;7.57;;;1.33;;
71667;SDS011;59504;54.806;9.640;2022-09-20T06:35:23;9.68;;;1.33;;
71667;SDS011;59504;54.806;9.640;2022-09-20T06:37:42;12.90;;;1.17;;
71667;SDS011;59504;54.806;9.640;2022-09-20T06:43:05;14.55;;;3.15;;
71667;SDS011;59504;54.806;9.640;2022-09-20T06:45:06;11.00;;;3.58;;
71667;SDS011;59504;54.806;9.640;2022-09-20T06:47:10;9.15;;;2.17;;
71667;SDS011;59504;54.806;9.640;2022-09-20T06:49:12;9.52;;;1.33;;
71667;SDS011;59504;54.806;9.640;2022-09-20T06:51:13;15.63;;;1.67;;
71667;SDS011;59504;54.806;9.640;2022-09-20T06:53:14;6.28;;;1.38;;
71667;SDS011;59504;54.806;9.640;2022-09-20T06:57:31;13.65;;;1.65;;
71667;SDS011;59504;54.806;9.640;2022-09-20T06:59:35;9.63;;;1.17;;
71667;SDS011;59504;54.806;9.640;2022-09-20T07:01:36;10.98;;;1.33;;
71667;SDS011;59504;54.806;9.640;2022-09-20T07:03:36;8.23;;;1.48;;
71667;SDS011;59504;54.806;9.640;2022-09-20T07:05:37;11.07;;;1.38;;
71667;SDS011;59504;54.806;9.640;2022-09-20T07:07:38;12.38;;;1.77;;
71667;SDS011;59504;54.806;9.640;2022-09-20T07:09:59;8.88;;;1.45;;
71667;SDS011;59504;54.806;9.640;2022-09-20T07:12:20;10.35;;;1.63;;
71667;SDS011;59504;54.806;9.640;2022-09-20T07:14:41;9.77;;;1.50;;
71667;SDS011;59504;54.806;9.640;2022-09-20T07:17:02;10.73;;;1.20;;
71667;SDS011;59504;54.806;9.640;2022-09-20T07:19:23;11.00;;;1.08;;
71667;SDS011;59504;54.806;9.640;2022-09-20T07:21:43;8.05;;;1.30;;
71667;SDS011;59504;54.806;9.640;2022-09-20T07:24:04;15.05;;;1.52;;
71667;SDS011;59504;54.806;9.640;2022-09-20T07:26:26;12.25;;;1.63;;
71667;SDS011;59504;54.806;9.640;2022-09-20T07:28:48;11.25;;;1.48;;
71667;SDS011;59504;54.806;9.640;2022-09-20T07:31:09;7.95;;;1.10;;
71667;SDS011;59504;54.806;9.640;2022-09-20T07:33:10;10.15;;;1.33;;
71667;SDS011;59504;54.806;9.640;2022-09-20T07:35:16;19.23;;;1.85;;
71667;SDS011;59504;54.806;9.640;2022-09-20T07:37:16;11.75;;;1.50;;
71667;SDS011;59504;54.806;9.640;2022-09-20T07:39:18;9.90;;;1.10;;
71667;SDS011;59504;54.806;9.640;2022-09-20T07:41:19;9.60;;;1.35;;
71667;SDS011;59504;54.806;9.640;2022-09-20T07:43:22;9.05;;;1.48;;
71667;SDS011;59504;54.806;9.640;2022-09-20T07:45:23;7.70;;;1.10;;
71667;SDS011;59504;54.806;9.640;2022-09-20T07:47:24;8.85;;;1.77;;
71667;SDS011;59504;54.806;9.640;2022-09-20T07:49:27;7.65;;;1.52;;
71667;SDS011;59504;54.806;9.640;2022-09-20T07:51:31;15.20;;;1.67;;
71667;SDS011;59504;54.806;9.640;2022-09-20T07:53:31;9.02;;;1.63;;
71667;SDS011;59504;54.806;9.640;2022-09-20T07:55:32;14.35;;;1.67;;
71667;SDS011;59504;54.806;9.640;2022-09-20T07:57:35;14.05;;;1.63;;
71667;SDS011;59504;54.806;9.640;2022-09-20T07:59:37;12.95;;;1.52;;
71667;SDS011;59504;54.806;9.640;2022-09-20T08:01:38;15.23;;;2.70;;
71667;SDS011;59504;54.806;9.640;2022-09-20T08:03:39;8.55;;;1.50;;
71667;SDS011;59504;54.806;9.640;2022-09-20T08:05:41;9.35;;;1.42;;
71667;SDS011;59504;54.806;9.640;2022-09-20T08:07:42;10.20;;;2.33;;
71667;SDS011;59504;54.806;9.640;2022-09-20T08:09:43;17.52;;;3.40;;
71667;SDS011;59504;54.806;9.640;2022-09-20T08:11:44;14.18;;;2.28;;
71667;SDS011;59504;54.806;9.640;2022-09-20T08:13:46;9.07;;;2.58;;
71667;SDS011;59504;54.806;9.640;2022-09-20T08:15:48;17.75;;;1.90;;
71667;SDS011;59504;54.806;9.640;2022-09-20T08:17:48;11.35;;;1.70;;
71667;SDS011;59504;54.806;9.640;2022-09-20T08:19:49;12.30;;;1.63;;
71667;SDS011;59504;54.806;9.640;2022-09-20T08:21:52;14.52;;;2.72;;
71667;SDS011;59504;54.806;9.640;2022-09-20T08:23:53;13.30;;;3.22;;
71667;SDS011;59504;54.806;9.640;2022-09-20T08:25:55;15.15;;;3.08;;
71667;SDS011;59504;54.806;9.640;2022-09-20T08:27:56;18.70;;;2.80;;
71667;SDS011;59504;54.806;9.640;2022-09-20T08:29:56;9.73;;;1.70;;
71667;SDS011;59504;54.806;9.640;2022-09-20T08:31:58;12.05;;;1.42;;
71667;SDS011;59504;54.806;9.640;2022-09-20T08:34:00;8.73;;;2.05;;
71667;SDS011;59504;54.806;9.640;2022-09-20T08:36:03;16.27;;;2.10;;
71667;SDS011;59504;54.806;9.640;2022-09-20T08:38:05;8.98;;;1.42;;
71667;SDS011;59504;54.806;9.640;2022-09-20T08:40:07;10.25;;;1.23;;
71667;SDS011;59504;54.806;9.640;2022-09-20T08:42:13;16.00;;;1.80;;
71667;SDS011;59504;54.806;9.640;2022-09-20T08:44:21;12.73;;;1.73;;
71667;SDS011;59504;54.806;9.640;2022-09-20T08:46:25;10.38;;;1.45;;
71667;SDS011;59504;54.806;9.640;2022-09-20T08:48:29;7.95;;;1.45;;
71667;SDS011;59504;54.806;9.640;2022-09-20T08:50:32;28.15;;;2.70;;
71667;SDS011;59504;54.806;9.640;2022-09-20T08:52:34;41.45;;;2.50;;
71667;SDS011;59504;54.806;9.640;2022-09-20T08:54:39;44.15;;;5.38;;
71667;SDS011;59504;54.806;9.640;2022-09-20T08:56:42;29.83;;;2.85;;
71667;SDS011;59504;54.806;9.640;2022-09-20T08:58:47;63.10;;;4.30;;
71667;SDS011;59504;54.806;9.640;2022-09-20T09:00:48;68.65;;;5.25;;
71667;SDS011;59504;54.806;9.640;2022-09-20T09:02:49;13.85;;;1.20;;
71667;SDS011;59504;54.806;9.640;2022-09-20T09:04:53;15.10;;;1.75;;
71667;SDS011;59504;54.806;9.640;2022-09-20T09:06:55;14.25;;;1.70;;
71667;SDS011;59504;54.806;9.640;2022-09-20T09:08:56;11.98;;;1.83;;
71667;SDS011;59504;54.806;9.640;2022-09-20T09:11:02;47.10;;;3.97;;
71667;SDS011;59504;54.806;9.640;2022-09-20T09:13:12;38.63;;;3.20;;
71667;SDS011;59504;54.806;9.640;2022-09-20T09:15:23;34.15;;;3.30;;
71667;SDS011;59504;54.806;9.640;2022-09-20T09:17:29;11.15;;;1.92;;
71667;SDS011;59504;54.806;9.640;2022-09-20T09:19:31;12.32;;;1.75;;
71667;SDS011;59504;54.806;9.640;2022-09-20T09:21:42;8.63;;;1.50;;
71667;SDS011;59504;54.806;9.640;2022-09-20T09:25:52;6.72;;;1.25;;
71667;SDS011;59504;54.806;9.640;2022-09-20T09:27:58;18.38;;;2.05;;
71667;SDS011;59504;54.806;9.640;2022-09-20T09:30:18;20.10;;;1.38;;
71667;SDS011;59504;54.806;9.640;2022-09-20T09:32:24;16.73;;;1.45;;
71667;SDS011;59504;54.806;9.640;2022-09-20T09:34:31;16.25;;;1.98;;
71667;SDS011;59504;54.806;9.640;2022-09-20T09:36:42;12.75;;;1.70;;
71667;SDS011;59504;54.806;9.640;2022-09-20T09:38:44;16.20;;;1.80;;
71667;SDS011;59504;54.806;9.640;2022-09-20T09:40:58;11.27;;;1.13;;
71667;SDS011;59504;54.806;9.640;2022-09-20T09:43:01;9.05;;;1.80;;
71667;SDS011;59504;54.806;9.640;2022-09-20T09:45:12;10.23;;;1.48;;
71667;SDS011;59504;54.806;9.640;2022-09-20T09:47:26;10.70;;;1.33;;
71667;SDS011;59504;54.806;9.640;2022-09-20T09:49:29;9.95;;;1.23;;
71667;SDS011;59504;54.806;9.640;2022-09-20T09:51:33;12.75;;;1.15;;
71667;SDS011;59504;54.806;9.640;2022-09-20T09:53:35;7.72;;;1.38;;
71667;SDS011;59504;54.806;9.640;2022-09-20T09:55:50;13.13;;;1.27;;
71667;SDS011;59504;54.806;9.640;2022-09-20T09:58:04;10.32;;;1.48;;
71667;SDS011;59504;54.806;9.640;2022-09-20T10:00:25;7.97;;;1.27;;
71667;SDS011;59504;54.806;9.640;2022-09-20T10:05:18;9.63;;;1.10;;
71667;SDS011;59504;54.806;9.640;2022-09-20T10:13:09;9.02;;;1.05;;
71667;SDS011;59504;54.806;9.640;2022-09-20T10:15:27;7.07;;;1.63;;
71667;SDS011;59504;54.806;9.640;2022-09-20T10:29:31;6.68;;;1.13;;
71667;SDS011;59504;54.806;9.640;2022-09-20T10:43:33;5.80;;;0.82;;
71667;SDS011;59504;54.806;9.640;2022-09-20T10:48:11;17.33;;;0.98;;
71667;SDS011;59504;54.806;9.640;2022-09-20T10:50:58;6.07;;;1.13;;
71667;SDS011;59504;54.806;9.640;2022-09-20T10:53:16;5.32;;;1.00;;
71667;SDS011;59504;54.806;9.640;2022-09-20T10:59:53;9.00;;;0.93;;
71667;SDS011;59504;54.806;9.640;2022-09-20T11:06:54;12.45;;;1.85;;
71667;SDS011;59504;54.806;9.640;2022-09-20T11:09:20;6.93;;;1.13;;
71667;SDS011;59504;54.806;9.640;2022-09-20T11:11:37;6.25;;;1.13;;
71667;SDS011;59504;54.806;9.640;2022-09-20T11:14:02;8.93;;;1.48;;
71667;SDS011;59504;54.806;9.640;2022-09-20T11:16:27;7.28;;;0.95;;
71667;SDS011;59504;54.806;9.640;2022-09-20T11:18:47;7.95;;;1.10;;
71667;SDS011;59504;54.806;9.640;2022-09-20T11:21:01;6.63;;;0.93;;
71667;SDS011;59504;54.806;9.640;2022-09-20T11:25:49;4.40;;;0.82;;
71667;SDS011;59504;54.806;9.640;2022-09-20T11:27:56;9.07;;;1.08;;
71667;SDS011;59504;54.806;9.640;2022-09-20T11:30:18;4.22;;;0.63;;
71667;SDS011;59504;54.806;9.640;2022-09-20T11:32:23;3.92;;;0.60;;
71667;SDS011;59504;54.806;9.640;2022-09-20T11:34:30;3.00;;;0.60;;
71667;SDS011;59504;54.806;9.640;2022-09-20T11:36:51;4.47;;;0.77;;
71667;SDS011;59504;54.806;9.640;2022-09-20T11:38:57;1.77;;;0.40;;
71667;SDS011;59504;54.806;9.640;2022-09-20T11:41:24;4.90;;;0.70;;
71667;SDS011;59504;54.806;9.640;2022-09-20T11:43:27;4.13;;;0.43;;
71667;SDS011;59504;54.806;9.640;2022-09-20T11:45:29;3.03;;;0.60;;
71667;SDS011;59504;54.806;9.640;2022-09-20T11:47:32;4.20;;;0.70;;
71667;SDS011;59504;54.806;9.640;2022-09-20T11:57:14;3.38;;;0.65;;
71667;SDS011;59504;54.806;9.640;2022-09-20T11:59:25;3.00;;;0.68;;
71667;SDS011;59504;54.806;9.640;2022-09-20T12:01:28;4.07;;;0.88;;
71667;SDS011;59504;54.806;9.640;2022-09-20T12:03:37;7.13;;;1.13;;
71667;SDS011;59504;54.806;9.640;2022-09-20T12:05:40;3.17;;;0.50;;
71667;SDS011;59504;54.806;9.640;2022-09-20T12:07:42;4.35;;;0.82;;
71667;SDS011;59504;54.806;9.640;2022-09-20T12:09:53;2.33;;;0.40;;
71667;SDS011;59504;54.806;9.640;2022-09-20T12:14:03;1.33;;;0.47;;
71667;SDS011;59504;54.806;9.640;2022-09-20T12:16:06;2.83;;;0.50;;
71667;SDS011;59504;54.806;9.640;2022-09-20T12:23:41;4.18;;;0.43;;
71667;SDS011;59504;54.806;9.640;2022-09-20T12:25:34;3.47;;;0.95;;
71667;SDS011;59504;54.806;9.640;2022-09-20T12:34:36;1.45;;;0.38;;
71667;SDS011;59504;54.806;9.640;2022-09-20T12:36:39;5.10;;;0.70;;
71667;SDS011;59504;54.806;9.640;2022-09-20T12:38:45;1.80;;;0.40;;
71667;SDS011;59504;54.806;9.640;2022-09-20T12:42:58;3.78;;;0.60;;
71667;SDS011;59504;54.806;9.640;2022-09-20T12:45:00;3.25;;;0.65;;
71667;SDS011;59504;54.806;9.640;2022-09-20T12:49:18;4.15;;;0.68;;
71667;SDS011;59504;54.806;9.640;2022-09-20T12:51:49;3.78;;;0.32;;
71667;SDS011;59504;54.806;9.640;2022-09-20T12:54:09;0.43;;;0.10;;
71667;SDS011;59504;54.806;9.640;2022-09-20T12:56:22;3.75;;;0.50;;
71667;SDS011;59504;54.806;9.640;2022-09-20T12:58:29;2.28;;;0.50;;
71667;SDS011;59504;54.806;9.640;2022-09-20T13:00:36;2.70;;;0.30;;
71667;SDS011;59504;54.806;9.640;2022-09-20T13:04:52;2.25;;;0.20;;
71667;SDS011;59504;54.806;9.640;2022-09-20T13:07:21;3.17;;;0.30;;
71667;SDS011;59504;54.806;9.640;2022-09-20T13:09:28;0.32;;;0.13;;
71667;SDS011;59504;54.806;9.640;2022-09-20T13:16:03;0.82;;;0.30;;
71667;SDS011;59504;54.806;9.640;2022-09-20T13:18:06;0.52;;;0.10;;
71667;SDS011;59504;54.806;9.640;2022-09-20T13:20:14;0.28;;;0.10;;
71667;SDS011;59504;54.806;9.640;2022-09-20T13:24:25;1.15;;;0.13;;
71667;SDS011;59504;54.806;9.640;2022-09-20T13:26:32;1.05;;;0.00;;
71667;SDS011;59504;54.806;9.640;2022-09-20T13:28:43;2.05;;;0.10;;
71667;SDS011;59504;54.806;9.640;2022-09-20T13:33:40;2.70;;;0.47;;
71667;SDS011;59504;54.806;9.640;2022-09-20T13:36:00;1.50;;;0.50;;
71667;SDS011;59504;54.806;9.640;2022-09-20T13:38:23;2.25;;;0.52;;
71667;SDS011;59504;54.806;9.640;2022-09-20T13:40:48;1.05;;;0.20;;
71667;SDS011;59504;54.806;9.640;2022-09-20T13:43:26;0.20;;;0.10;;
71667;SDS011;59504;54.806;9.640;2022-09-20T13:46:06;1.30;;;0.20;;
71667;SDS011;59504;54.806;9.640;2022-09-20T13:48:30;2.20;;;0.30;;
71667;SDS011;59504;54.806;9.640;2022-09-20T13:50:33;0.73;;;0.10;;
71667;SDS011;59504;54.806;9.640;2022-09-20T13:52:43;0.40;;;0.17;;
71667;SDS011;59504;54.806;9.640;2022-09-20T13:54:45;0.85;;;0.20;;
71667;SDS011;59504;54.806;9.640;2022-09-20T13:56:48;0.00;;;0.00;;
71667;SDS011;59504;54.806;9.640;2022-09-20T13:58:51;2.30;;;0.20;;
71667;SDS011;59504;54.806;9.640;2022-09-20T14:00:53;2.38;;;0.13;;
71667;SDS011;59504;54.806;9.640;2022-09-20T14:02:54;0.73;;;0.10;;
71667;SDS011;59504;54.806;9.640;2022-09-20T14:05:02;0.40;;;0.10;;
71667;SDS011;59504;54.806;9.640;2022-09-20T14:07:04;0.50;;;0.00;;
71667;SDS011;59504;54.806;9.640;2022-09-20T14:09:06;1.35;;;0.20;;
71667;SDS011;59504;54.806;9.640;2022-09-20T14:11:18;0.28;;;0.17;;
71667;SDS011;59504;54.806;9.640;2022-09-20T14:13:22;0.82;;;0.10;;
71667;SDS011;59504;54.806;9.640;2022-09-20T14:15:23;1.85;;;0.20;;
71667;SDS011;59504;54.806;9.640;2022-09-20T14:17:28;0.70;;;0.10;;
71667;SDS011;59504;54.806;9.640;2022-09-20T14:19:32;0.22;;;0.00;;
71667;SDS011;59504;54.806;9.640;2022-09-20T14:21:42;0.70;;;0.22;;
71667;SDS011;59504;54.806;9.640;2022-09-20T14:23:50;1.45;;;0.10;;
71667;SDS011;59504;54.806;9.640;2022-09-20T14:26:05;1.00;;;0.20;;
71667;SDS011;59504;54.806;9.640;2022-09-20T14:28:16;0.85;;;0.30;;
71667;SDS011;59504;54.806;9.640;2022-09-20T14:30:29;0.40;;;0.10;;
71667;SDS011;59504;54.806;9.640;2022-09-20T14:32:49;2.40;;;0.20;;
71667;SDS011;59504;54.806;9.640;2022-09-20T14:39:26;1.30;;;0.13;;
71667;SDS011;59504;54.806;9.640;2022-09-20T14:43:36;4.65;;;0.40;;
71667;SDS011;59504;54.806;9.640;2022-09-20T14:45:37;0.70;;;0.20;;
71667;SDS011;59504;54.806;9.640;2022-09-20T14:47:51;0.60;;;0.20;;
71667;SDS011;59504;54.806;9.640;2022-09-20T14:49:55;2.13;;;0.43;;
71667;SDS011;59504;54.806;9.640;2022-09-20T14:54:23;0.57;;;0.20;;
71667;SDS011;59504;54.806;9.640;2022-09-20T14:56:31;2.42;;;0.30;;
71667;SDS011;59504;54.806;9.640;2022-09-20T14:58:59;1.52;;;0.20;;
71667;SDS011;59504;54.806;9.640;2022-09-20T15:01:05;0.45;;;0.20;;
71667;SDS011;59504;54.806;9.640;2022-09-20T15:03:31;0.88;;;0.40;;
71667;SDS011;59504;54.806;9.640;2022-09-20T15:05:35;0.52;;;0.20;;
71667;SDS011;59504;54.806;9.640;2022-09-20T15:07:36;1.40;;;0.30;;
71667;SDS011;59504;54.806;9.640;2022-09-20T15:09:37;1.42;;;0.10;;
71667;SDS011;59504;54.806;9.640;2022-09-20T15:11:38;0.45;;;0.20;;
71667;SDS011;59504;54.806;9.640;2022-09-20T15:13:39;1.35;;;0.20;;
71667;SDS011;59504;54.806;9.640;2022-09-20T15:15:40;3.97;;;0.32;;
71667;SDS011;59504;54.806;9.640;2022-09-20T15:17:43;1.30;;;0.20;;
71667;SDS011;59504;54.806;9.640;2022-09-20T15:19:46;1.87;;;0.50;;
71667;SDS011;59504;54.806;9.640;2022-09-20T15:21:47;4.25;;;0.30;;
71667;SDS011;59504;54.806;9.640;2022-09-20T15:23:48;3.55;;;0.52;;
71667;SDS011;59504;54.806;9.640;2022-09-20T15:25:50;2.03;;;0.90;;
71667;SDS011;59504;54.806;9.640;2022-09-20T15:27:52;2.72;;;0.38;;
71667;SDS011;59504;54.806;9.640;2022-09-20T15:29:53;5.10;;;0.40;;
71667;SDS011;59504;54.806;9.640;2022-09-20T15:31:55;1.67;;;0.50;;
71667;SDS011;59504;54.806;9.640;2022-09-20T15:33:56;1.55;;;0.32;;
71667;SDS011;59504;54.806;9.640;2022-09-20T15:35:57;3.72;;;0.38;;
71667;SDS011;59504;54.806;9.640;2022-09-20T15:37:58;2.75;;;0.40;;
71667;SDS011;59504;54.806;9.640;2022-09-20T15:39:58;2.20;;;0.47;;
71667;SDS011;59504;54.806;9.640;2022-09-20T15:41:59;2.05;;;0.52;;
71667;SDS011;59504;54.806;9.640;2022-09-20T15:44:01;2.15;;;0.20;;
71667;SDS011;59504;54.806;9.640;2022-09-20T15:46:16;1.92;;;0.40;;
71667;SDS011;59504;54.806;9.640;2022-09-20T15:48:19;1.17;;;0.43;;
71667;SDS011;59504;54.806;9.640;2022-09-20T15:50:21;5.22;;;0.40;;
71667;SDS011;59504;54.806;9.640;2022-09-20T15:52:22;3.40;;;0.25;;
71667;SDS011;59504;54.806;9.640;2022-09-20T15:54:24;1.27;;;0.30;;
71667;SDS011;59504;54.806;9.640;2022-09-20T15:56:29;1.27;;;0.20;;
71667;SDS011;59504;54.806;9.640;2022-09-20T15:58:32;1.98;;;0.22;;
71667;SDS011;59504;54.806;9.640;2022-09-20T16:00:33;2.38;;;0.22;;
71667;SDS011;59504;54.806;9.640;2022-09-20T16:02:34;2.00;;;0.20;;
71667;SDS011;59504;54.806;9.640;2022-09-20T16:04:36;3.60;;;0.40;;
71667;SDS011;59504;54.806;9.640;2022-09-20T16:06:37;0.73;;;0.30;;
71667;SDS011;59504;54.806;9.640;2022-09-20T16:08:40;1.00;;;0.30;;
71667;SDS011;59504;54.806;9.640;2022-09-20T16:10:53;0.82;;;0.20;;
71667;SDS011;59504;54.806;9.640;2022-09-20T16:12:55;0.80;;;0.30;;
71667;SDS011;59504;54.806;9.640;2022-09-20T16:14:56;4.07;;;0.55;;
71667;SDS011;59504;54.806;9.640;2022-09-20T16:16:57;0.55;;;0.22;;
71667;SDS011;59504;54.806;9.640;2022-09-20T16:18:58;3.00;;;0.40;;
71667;SDS011;59504;54.806;9.640;2022-09-20T16:21:19;1.20;;;0.20;;
71667;SDS011;59504;54.806;9.640;2022-09-20T16:23:20;0.43;;;0.10;;
71667;SDS011;59504;54.806;9.640;2022-09-20T16:25:21;1.63;;;0.30;;
71667;SDS011;59504;54.806;9.640;2022-09-20T16:27:22;2.30;;;0.20;;
71667;SDS011;59504;54.806;9.640;2022-09-20T16:29:23;2.17;;;0.50;;
71667;SDS011;59504;54.806;9.640;2022-09-20T16:33:34;1.60;;;0.30;;
71667;SDS011;59504;54.806;9.640;2022-09-20T16:35:35;0.88;;;0.20;;
71667;SDS011;59504;54.806;9.640;2022-09-20T16:37:36;2.97;;;0.30;;
71667;SDS011;59504;54.806;9.640;2022-09-20T16:39:38;0.90;;;0.30;;
71667;SDS011;59504;54.806;9.640;2022-09-20T16:41:41;1.07;;;0.20;;
71667;SDS011;59504;54.806;9.640;2022-09-20T16:43:43;1.05;;;0.30;;
71667;SDS011;59504;54.806;9.640;2022-09-20T16:45:46;5.68;;;0.45;;
71667;SDS011;59504;54.806;9.640;2022-09-20T16:47:47;7.03;;;0.50;;
71667;SDS011;59504;54.806;9.640;2022-09-20T16:49:49;0.57;;;0.15;;
71667;SDS011;59504;54.806;9.640;2022-09-20T16:51:52;1.02;;;0.20;;
71667;SDS011;59504;54.806;9.640;2022-09-20T16:53:53;1.55;;;0.30;;
71667;SDS011;59504;54.806;9.640;2022-09-20T16:55:54;0.73;;;0.30;;
71667;SDS011;59504;54.806;9.640;2022-09-20T16:57:55;0.75;;;0.30;;
71667;SDS011;59504;54.806;9.640;2022-09-20T16:59:55;2.10;;;0.40;;
71667;SDS011;59504;54.806;9.640;2022-09-20T17:01:57;1.17;;;0.30;;
71667;SDS011;59504;54.806;9.640;2022-09-20T17:04:01;4.90;;;0.60;;
71667;SDS011;59504;54.806;9.640;2022-09-20T17:06:06;2.95;;;0.30;;
71667;SDS011;59504;54.806;9.640;2022-09-20T17:08:07;0.80;;;0.20;;
71667;SDS011;59504;54.806;9.640;2022-09-20T17:10:09;2.75;;;0.40;;
71667;SDS011;59504;54.806;9.640;2022-09-20T17:12:10;1.17;;;0.30;;
71667;SDS011;59504;54.806;9.640;2022-09-20T17:14:13;0.70;;;0.22;;
71667;SDS011;59504;54.806;9.640;2022-09-20T17:16:20;2.50;;;0.40;;
71667;SDS011;59504;54.806;9.640;2022-09-20T17:18:22;1.02;;;0.40;;
71667;SDS011;59504;54.806;9.640;2022-09-20T17:20:23;3.03;;;0.40;;
71667;SDS011;59504;54.806;9.640;2022-09-20T17:22:26;2.20;;;0.40;;
71667;SDS011;59504;54.806;9.640;2022-09-20T17:24:27;4.00;;;0.88;;
71667;SDS011;59504;54.806;9.640;2022-09-20T17:26:29;3.83;;;0.40;;
71667;SDS011;59504;54.806;9.640;2022-09-20T17:28:36;1.92;;;0.40;;
71667;SDS011;59504;54.806;9.640;2022-09-20T17:30:38;1.95;;;0.50;;
71667;SDS011;59504;54.806;9.640;2022-09-20T17:32:39;3.63;;;0.55;;
71667;SDS011;59504;54.806;9.640;2022-09-20T17:34:47;7.82;;;1.00;;
71667;SDS011;59504;54.806;9.640;2022-09-20T17:36:48;1.63;;;0.50;;
71667;SDS011;59504;54.806;9.640;2022-09-20T17:38:51;1.55;;;0.50;;